createdAt,value
2018-03-11T00:00:33.989Z,96613.53
2018-03-11T00:01:37.326Z,96608.89
2018-03-11T00:02:40.516Z,96611.02
2018-03-11T00:03:44.252Z,96612.48
2018-03-11T00:04:48.114Z,96608.60
2018-03-11T00:05:51.642Z,96613.09
2018-03-11T00:06:54.929Z,96609.21
2018-03-11T00:07:58.330Z,96613.84
2018-03-11T00:09:01.590Z,96616.73
2018-03-11T00:10:05.145Z,96615.36
2018-03-11T00:11:08.458Z,96617.02
2018-03-11T00:12:11.646Z,96613.67
2018-03-11T00:13:15.004Z,96611.93
2018-03-11T00:14:18.351Z,96616.18
2018-03-11T00:15:21.680Z,96614.81
2018-03-11T00:16:25.298Z,96617.55
2018-03-11T00:17:28.611Z,96617.17
2018-03-11T00:18:31.905Z,96622.41
2018-03-11T00:19:35.299Z,96621.05
2018-03-11T00:20:38.643Z,96615.48
2018-03-11T00:21:41.884Z,96620.85
2018-03-11T00:22:45.496Z,96615.61
2018-03-11T00:23:48.911Z,96613.52
2018-03-11T00:24:52.176Z,96611.77
2018-03-11T00:25:55.765Z,96615.48
2018-03-11T00:26:59.888Z,96620.20
2018-03-11T00:28:03.260Z,96611.84
2018-03-11T00:29:06.809Z,96618.84
2018-03-11T00:30:10.148Z,96616.10
2018-03-11T00:31:13.473Z,96618.08
2018-03-11T00:32:17.646Z,96619.22
2018-03-11T00:33:20.927Z,96614.62
2018-03-11T00:34:24.148Z,96613.52
2018-03-11T00:35:27.775Z,96611.62
2018-03-11T00:36:31.106Z,96612.38
2018-03-11T00:37:35.042Z,96615.00
2018-03-11T00:38:38.383Z,96613.02
2018-03-11T00:39:42.443Z,96610.44
2018-03-11T00:40:46.246Z,96612.27
2018-03-11T00:41:49.984Z,96610.02
2018-03-11T00:42:53.524Z,96605.00
2018-03-11T00:43:57.160Z,96603.87
2018-03-11T00:45:00.452Z,96612.31
2018-03-11T00:46:03.906Z,96606.98
2018-03-11T00:47:07.802Z,96611.47
2018-03-11T00:48:11.424Z,96611.84
2018-03-11T00:49:14.653Z,96608.73
2018-03-11T00:50:18.364Z,96609.72
2018-03-11T00:51:21.693Z,96605.77
2018-03-11T00:52:25.006Z,96610.02
2018-03-11T00:53:29.155Z,96606.91
2018-03-11T00:54:32.739Z,96601.36
2018-03-11T00:55:36.101Z,96603.34
2018-03-11T00:56:39.625Z,96604.71
2018-03-11T00:57:44.432Z,96596.58
2018-03-11T00:58:47.837Z,96596.81
2018-03-11T00:59:51.141Z,96590.44
2018-03-11T01:00:54.882Z,96593.87
2018-03-11T01:01:59.151Z,96591.97
2018-03-11T01:03:04.274Z,96590.23
2018-03-11T01:04:08.531Z,96585.52
2018-03-11T01:05:11.899Z,96579.66
2018-03-11T01:06:16.283Z,96572.06
2018-03-11T01:07:19.932Z,96565.38
2018-03-11T01:08:24.211Z,96559.44
2018-03-11T01:09:27.638Z,96568.09
2018-03-11T01:10:31.502Z,96564.28
2018-03-11T01:11:34.821Z,96566.93
2018-03-11T01:12:38.174Z,96564.58
2018-03-11T01:13:43.542Z,96564.72
2018-03-11T01:14:46.903Z,96562.22
2018-03-11T01:15:50.915Z,96560.00
2018-03-11T01:16:54.427Z,96553.31
2018-03-11T01:17:58.107Z,96553.88
2018-03-11T01:19:03.441Z,96548.23
2018-03-11T01:20:07.119Z,96547.30
2018-03-11T01:21:10.552Z,96548.20
2018-03-11T01:22:14.031Z,96546.98
2018-03-11T01:23:17.742Z,96550.36
2018-03-11T01:24:22.818Z,96546.63
2018-03-11T01:25:26.359Z,96540.78
2018-03-11T01:26:31.094Z,96542.67
2018-03-11T01:27:34.822Z,96538.80
2018-03-11T01:28:39.176Z,96542.52
2018-03-11T01:29:42.689Z,96540.37
2018-03-11T01:30:46.260Z,96540.75
2018-03-11T01:31:49.617Z,96536.88
2018-03-11T01:32:53.331Z,96531.55
2018-03-11T01:33:56.844Z,96537.14
2018-03-11T01:35:00.246Z,96534.84
2018-03-11T01:36:04.072Z,96541.68
2018-03-11T01:37:07.508Z,96532.39
2018-03-11T01:38:11.039Z,96528.66
2018-03-11T01:39:14.670Z,96531.64
2018-03-11T01:40:17.978Z,96526.02
2018-03-11T01:41:21.496Z,96527.55
2018-03-11T01:42:24.913Z,96527.30
2018-03-11T01:43:28.901Z,96517.05
2018-03-11T01:44:32.377Z,96526.56
2018-03-11T01:45:36.328Z,96526.27
2018-03-11T01:46:41.489Z,96526.33
2018-03-11T01:47:45.315Z,96526.02
2018-03-11T01:48:49.002Z,96521.44
2018-03-11T01:49:52.454Z,96512.94
2018-03-11T01:50:55.916Z,96518.64
2018-03-11T01:51:59.482Z,96521.47
2018-03-11T01:53:02.825Z,96509.85
2018-03-11T01:54:06.503Z,96506.97
2018-03-11T01:55:10.060Z,96505.66
2018-03-11T01:56:13.614Z,96497.16
2018-03-11T01:57:17.423Z,96498.47
2018-03-11T01:58:20.832Z,96490.38
2018-03-11T01:59:24.971Z,96489.85
2018-03-11T02:00:28.421Z,96486.39
2018-03-11T02:01:31.867Z,96486.27
2018-03-11T02:02:36.344Z,96481.13
2018-03-11T02:03:40.687Z,96479.60
2018-03-11T02:04:44.291Z,96473.69
2018-03-11T02:05:47.924Z,96478.55
2018-03-11T02:06:51.723Z,96477.56
2018-03-11T02:07:56.094Z,96473.09
2018-03-11T02:08:59.615Z,96465.95
2018-03-11T02:10:03.851Z,96470.14
2018-03-11T02:11:07.661Z,96459.81
2018-03-11T02:12:11.886Z,96459.81
2018-03-11T02:13:16.970Z,96466.85
2018-03-11T02:14:20.351Z,96456.41
2018-03-11T02:15:24.970Z,96466.44
2018-03-11T02:16:28.833Z,96463.27
2018-03-11T02:17:32.475Z,96455.35
2018-03-11T02:18:35.887Z,96465.16
2018-03-11T02:19:39.681Z,96457.09
2018-03-11T02:20:43.116Z,96452.62
2018-03-11T02:21:46.994Z,96455.96
2018-03-11T02:22:51.097Z,96446.68
2018-03-11T02:23:54.922Z,96454.80
2018-03-11T02:24:59.107Z,96443.92
2018-03-11T02:26:02.600Z,96449.30
2018-03-11T02:27:06.339Z,96437.48
2018-03-11T02:28:09.906Z,96437.48
2018-03-11T02:29:13.866Z,96429.40
2018-03-11T02:30:17.273Z,96429.19
2018-03-11T02:31:21.967Z,96424.66
2018-03-11T02:32:25.576Z,96429.60
2018-03-11T02:33:29.167Z,96429.69
2018-03-11T02:34:32.439Z,96429.28
2018-03-11T02:35:36.260Z,96423.14
2018-03-11T02:36:40.010Z,96428.92
2018-03-11T02:37:43.579Z,96421.33
2018-03-11T02:38:48.696Z,96422.33
2018-03-11T02:39:52.619Z,96425.23
2018-03-11T02:40:56.289Z,96414.44
2018-03-11T02:42:00.044Z,96414.75
2018-03-11T02:43:03.438Z,96408.15
2018-03-11T02:44:07.391Z,96403.52
2018-03-11T02:45:10.760Z,96400.93
2018-03-11T02:46:14.444Z,96404.34
2018-03-11T02:47:18.159Z,96403.52
2018-03-11T02:48:22.158Z,96403.92
2018-03-11T02:49:26.177Z,96406.75
2018-03-11T02:50:29.828Z,96406.19
2018-03-11T02:51:34.240Z,96405.98
2018-03-11T02:52:40.242Z,96410.39
2018-03-11T02:53:44.435Z,96419.28
2018-03-11T02:54:48.696Z,96417.13
2018-03-11T02:55:52.472Z,96419.50
2018-03-11T02:56:57.319Z,96420.52
2018-03-11T02:58:01.868Z,96416.55
2018-03-11T02:59:05.255Z,96416.03
2018-03-11T03:00:09.097Z,96414.98
2018-03-11T03:01:13.154Z,96414.42
2018-03-11T03:02:16.756Z,96405.17
2018-03-11T03:03:20.681Z,96408.33
2018-03-11T03:04:25.450Z,96411.91
2018-03-11T03:05:28.953Z,96411.06
2018-03-11T03:06:32.460Z,96412.23
2018-03-11T03:07:37.262Z,96412.81
2018-03-11T03:08:40.760Z,96404.46
2018-03-11T03:09:44.215Z,96401.20
2018-03-11T03:10:47.746Z,96397.87
2018-03-11T03:11:52.950Z,96398.77
2018-03-11T03:12:56.604Z,96393.16
2018-03-11T03:14:00.567Z,96396.35
2018-03-11T03:15:04.053Z,96391.81
2018-03-11T03:16:07.556Z,96393.06
2018-03-11T03:17:11.015Z,96393.52
2018-03-11T03:18:16.053Z,96394.77
2018-03-11T03:19:21.053Z,96392.68
2018-03-11T03:20:24.991Z,96393.67
2018-03-11T03:21:30.163Z,96385.47
2018-03-11T03:22:33.820Z,96386.49
2018-03-11T03:23:37.890Z,96383.91
2018-03-11T03:24:41.517Z,96380.19
2018-03-11T03:25:44.973Z,96386.23
2018-03-11T03:26:48.667Z,96384.94
2018-03-11T03:27:52.172Z,96382.21
2018-03-11T03:28:55.805Z,96379.63
2018-03-11T03:29:59.099Z,96371.24
2018-03-11T03:31:03.113Z,96366.77
2018-03-11T03:32:06.591Z,96372.92
2018-03-11T03:33:10.164Z,96372.69
2018-03-11T03:34:14.409Z,96371.94
2018-03-11T03:35:18.145Z,96368.28
2018-03-11T03:36:23.259Z,96373.07
2018-03-11T03:37:27.133Z,96381.79
2018-03-11T03:38:30.778Z,96382.02
2018-03-11T03:39:35.104Z,96379.28
2018-03-11T03:40:38.794Z,96377.92
2018-03-11T03:41:42.469Z,96377.76
2018-03-11T03:42:47.767Z,96376.47
2018-03-11T03:43:52.126Z,96382.69
2018-03-11T03:44:55.860Z,96383.91
2018-03-11T03:45:59.939Z,96384.90
2018-03-11T03:47:03.171Z,96372.57
2018-03-11T03:48:07.417Z,96371.66
2018-03-11T03:49:11.162Z,96372.27
2018-03-11T03:50:15.577Z,96380.39
2018-03-11T03:51:20.865Z,96369.50
2018-03-11T03:52:26.121Z,96365.48
2018-03-11T03:53:29.987Z,96362.25
2018-03-11T03:54:33.950Z,96359.31
2018-03-11T03:55:37.838Z,96355.44
2018-03-11T03:56:41.151Z,96357.11
2018-03-11T03:57:45.100Z,96352.56
2018-03-11T03:58:49.894Z,96351.80
2018-03-11T03:59:53.150Z,96350.44
2018-03-11T04:00:58.061Z,96358.87
2018-03-11T04:02:01.502Z,96351.20
2018-03-11T04:03:05.803Z,96352.64
2018-03-11T04:04:09.328Z,96355.38
2018-03-11T04:05:13.001Z,96356.28
2018-03-11T04:06:17.147Z,96361.97
2018-03-11T04:07:20.749Z,96362.44
2018-03-11T04:08:25.228Z,96364.03
2018-03-11T04:09:28.777Z,96369.80
2018-03-11T04:10:33.076Z,96359.03
2018-03-11T04:11:38.063Z,96357.58
2018-03-11T04:12:42.949Z,96346.73
2018-03-11T04:13:47.233Z,96337.03
2018-03-11T04:14:50.872Z,96338.25
2018-03-11T04:15:55.528Z,96331.87
2018-03-11T04:16:59.405Z,96338.86
2018-03-11T04:18:03.147Z,96340.48
2018-03-11T04:19:06.693Z,96338.78
2018-03-11T04:20:10.101Z,96344.01
2018-03-11T04:21:13.995Z,96341.20
2018-03-11T04:22:17.734Z,96328.44
2018-03-11T04:23:21.274Z,96323.06
2018-03-11T04:24:25.555Z,96328.30
2018-03-11T04:25:28.902Z,96316.62
2018-03-11T04:26:32.528Z,96319.64
2018-03-11T04:27:35.981Z,96322.98
2018-03-11T04:28:39.782Z,96320.34
2018-03-11T04:29:43.493Z,96314.03
2018-03-11T04:30:48.515Z,96326.62
2018-03-11T04:31:51.758Z,96323.42
2018-03-11T04:32:54.899Z,96321.28
2018-03-11T04:33:58.266Z,96325.98
2018-03-11T04:35:02.135Z,96320.61
2018-03-11T04:36:06.483Z,96322.27
2018-03-11T04:37:10.405Z,96318.93
2018-03-11T04:38:15.554Z,96332.06
2018-03-11T04:39:18.901Z,96321.17
2018-03-11T04:40:22.280Z,96332.97
2018-03-11T04:41:27.582Z,96325.88
2018-03-11T04:42:31.155Z,96331.63
2018-03-11T04:43:36.165Z,96320.94
2018-03-11T04:44:39.785Z,96320.80
2018-03-11T04:45:43.126Z,96315.09
2018-03-11T04:46:46.465Z,96316.98
2018-03-11T04:47:50.669Z,96317.59
2018-03-11T04:48:54.512Z,96318.20
2018-03-11T04:49:59.090Z,96314.83
2018-03-11T04:51:02.511Z,96315.94
2018-03-11T04:52:06.074Z,96302.16
2018-03-11T04:53:09.723Z,96309.98
2018-03-11T04:54:13.005Z,96301.36
2018-03-11T04:55:16.535Z,96304.55
2018-03-11T04:56:20.360Z,96302.28
2018-03-11T04:57:23.802Z,96303.56
2018-03-11T04:58:27.000Z,96304.31
2018-03-11T04:59:30.451Z,96300.45
2018-03-11T05:00:34.069Z,96291.88
2018-03-11T05:01:38.152Z,96285.58
2018-03-11T05:02:43.289Z,96280.26
2018-03-11T05:03:46.351Z,96280.55
2018-03-11T05:04:49.679Z,96281.63
2018-03-11T05:05:52.970Z,96279.51
2018-03-11T05:06:56.664Z,96274.34
2018-03-11T05:08:01.502Z,96268.20
2018-03-11T05:09:05.071Z,96261.29
2018-03-11T05:10:08.607Z,96268.17
2018-03-11T05:11:11.864Z,96267.33
2018-03-11T05:12:16.336Z,96272.53
2018-03-11T05:13:19.549Z,96271.31
2018-03-11T05:14:22.853Z,96269.11
2018-03-11T05:15:27.041Z,96270.53
2018-03-11T05:16:32.324Z,96269.41
2018-03-11T05:17:35.602Z,96268.41
2018-03-11T05:18:38.895Z,96266.03
2018-03-11T05:19:42.375Z,96261.70
2018-03-11T05:20:45.892Z,96267.22
2018-03-11T05:21:51.017Z,96265.13
2018-03-11T05:22:54.446Z,96262.77
2018-03-11T05:23:57.881Z,96261.03
2018-03-11T05:25:01.791Z,96263.30
2018-03-11T05:26:05.515Z,96262.74
2018-03-11T05:27:09.069Z,96256.81
2018-03-11T05:28:14.579Z,96256.98
2018-03-11T05:29:18.297Z,96252.42
2018-03-11T05:30:21.885Z,96252.56
2018-03-11T05:31:25.490Z,96248.20
2018-03-11T05:32:28.916Z,96245.49
2018-03-11T05:33:33.629Z,96239.04
2018-03-11T05:34:37.129Z,96235.75
2018-03-11T05:35:41.232Z,96236.36
2018-03-11T05:36:44.668Z,96235.05
2018-03-11T05:37:48.098Z,96236.94
2018-03-11T05:38:51.342Z,96231.70
2018-03-11T05:39:55.318Z,96236.70
2018-03-11T05:40:59.849Z,96230.77
2018-03-11T05:42:05.626Z,96229.78
2018-03-11T05:43:09.203Z,96233.03
2018-03-11T05:44:13.187Z,96226.81
2018-03-11T05:45:17.336Z,96225.63
2018-03-11T05:46:21.371Z,96231.27
2018-03-11T05:47:25.248Z,96228.16
2018-03-11T05:48:30.761Z,96229.15
2018-03-11T05:49:34.119Z,96229.94
2018-03-11T05:50:37.609Z,96235.03
2018-03-11T05:51:41.624Z,96235.64
2018-03-11T05:52:45.503Z,96239.42
2018-03-11T05:53:49.372Z,96236.22
2018-03-11T05:54:53.819Z,96234.47
2018-03-11T05:55:56.992Z,96237.12
2018-03-11T05:57:00.621Z,96235.52
2018-03-11T05:58:04.855Z,96236.27
2018-03-11T05:59:09.558Z,96235.37
2018-03-11T06:00:14.622Z,96236.36
2018-03-11T06:01:19.172Z,96221.80
2018-03-11T06:02:22.625Z,96224.20
2018-03-11T06:03:26.242Z,96230.52
2018-03-11T06:04:30.445Z,96229.00
2018-03-11T06:05:34.229Z,96227.64
2018-03-11T06:06:38.230Z,96220.87
2018-03-11T06:07:41.803Z,96225.73
2018-03-11T06:08:45.274Z,96224.47
2018-03-11T06:09:49.072Z,96219.91
2018-03-11T06:10:52.571Z,96217.78
2018-03-11T06:11:56.106Z,96220.89
2018-03-11T06:12:59.981Z,96214.67
2018-03-11T06:14:03.448Z,96213.30
2018-03-11T06:15:06.864Z,96217.70
2018-03-11T06:16:10.650Z,96218.16
2018-03-11T06:17:14.176Z,96213.30
2018-03-11T06:18:17.826Z,96212.08
2018-03-11T06:19:21.872Z,96203.13
2018-03-11T06:20:25.332Z,96210.02
2018-03-11T06:21:29.021Z,96202.02
2018-03-11T06:22:32.823Z,96197.30
2018-03-11T06:23:36.437Z,96193.72
2018-03-11T06:24:40.056Z,96194.41
2018-03-11T06:25:44.159Z,96194.45
2018-03-11T06:26:50.513Z,96193.61
2018-03-11T06:27:54.174Z,96195.59
2018-03-11T06:28:57.761Z,96194.36
2018-03-11T06:30:01.308Z,96189.13
2018-03-11T06:31:04.978Z,96180.17
2018-03-11T06:32:08.956Z,96185.55
2018-03-11T06:33:12.588Z,96180.55
2018-03-11T06:34:17.051Z,96180.03
2018-03-11T06:35:20.715Z,96174.47
2018-03-11T06:36:24.287Z,96172.03
2018-03-11T06:37:27.858Z,96169.72
2018-03-11T06:38:31.712Z,96170.63
2018-03-11T06:39:35.444Z,96174.17
2018-03-11T06:40:39.003Z,96175.77
2018-03-11T06:41:42.885Z,96178.27
2018-03-11T06:42:46.530Z,96168.56
2018-03-11T06:43:50.354Z,96170.31
2018-03-11T06:44:54.257Z,96171.11
2018-03-11T06:45:57.910Z,96177.19
2018-03-11T06:47:01.506Z,96178.33
2018-03-11T06:48:05.149Z,96175.69
2018-03-11T06:49:08.667Z,96184.03
2018-03-11T06:50:12.317Z,96182.47
2018-03-11T06:51:16.335Z,96185.34
2018-03-11T06:52:19.881Z,96191.14
2018-03-11T06:53:23.442Z,96188.69
2018-03-11T06:54:27.172Z,96183.84
2018-03-11T06:55:31.030Z,96186.34
2018-03-11T06:56:34.567Z,96183.55
2018-03-11T06:57:38.570Z,96183.31
2018-03-11T06:58:42.220Z,96181.10
2018-03-11T06:59:45.676Z,96177.00
2018-03-11T07:00:49.367Z,96181.10
2018-03-11T07:01:52.838Z,96180.25
2018-03-11T07:02:56.328Z,96175.54
2018-03-11T07:04:00.129Z,96182.14
2018-03-11T07:05:03.773Z,96174.64
2018-03-11T07:06:07.548Z,96170.49
2018-03-11T07:07:11.163Z,96173.13
2018-03-11T07:08:14.875Z,96178.75
2018-03-11T07:09:18.340Z,96182.98
2018-03-11T07:10:22.183Z,96188.98
2018-03-11T07:11:25.672Z,96183.80
2018-03-11T07:12:29.262Z,96185.82
2018-03-11T07:13:32.713Z,96183.84
2018-03-11T07:14:36.517Z,96189.73
2018-03-11T07:15:40.200Z,96174.94
2018-03-11T07:16:43.735Z,96172.95
2018-03-11T07:17:47.370Z,96171.58
2018-03-11T07:18:50.893Z,96177.14
2018-03-11T07:19:54.326Z,96171.44
2018-03-11T07:20:57.731Z,96170.98
2018-03-11T07:22:01.478Z,96179.34
2018-03-11T07:23:05.077Z,96175.47
2018-03-11T07:24:08.590Z,96172.73
2018-03-11T07:25:12.040Z,96160.14
2018-03-11T07:26:15.524Z,96168.48
2018-03-11T07:27:18.999Z,96163.16
2018-03-11T07:28:22.750Z,96154.20
2018-03-11T07:29:26.204Z,96158.68
2018-03-11T07:30:29.614Z,96157.17
2018-03-11T07:31:32.991Z,96153.54
2018-03-11T07:32:36.557Z,96149.30
2018-03-11T07:33:40.123Z,96137.60
2018-03-11T07:34:43.898Z,96158.91
2018-03-11T07:35:47.396Z,96142.73
2018-03-11T07:36:50.824Z,96141.14
2018-03-11T07:37:54.193Z,96141.89
2018-03-11T07:38:57.796Z,96147.64
2018-03-11T07:40:01.263Z,96143.16
2018-03-11T07:41:05.180Z,96145.99
2018-03-11T07:42:08.739Z,96142.17
2018-03-11T07:43:12.198Z,96132.84
2018-03-11T07:44:15.666Z,96145.75
2018-03-11T07:45:19.038Z,96147.27
2018-03-11T07:46:22.346Z,96138.70
2018-03-11T07:47:25.978Z,96145.68
2018-03-11T07:48:29.319Z,96147.42
2018-03-11T07:49:32.662Z,96155.39
2018-03-11T07:50:36.093Z,96149.55
2018-03-11T07:51:39.552Z,96153.55
2018-03-11T07:52:43.099Z,96156.34
2018-03-11T07:53:47.256Z,96158.73
2018-03-11T07:54:50.562Z,96159.21
2018-03-11T07:55:53.926Z,96157.98
2018-03-11T07:56:57.296Z,96158.87
2018-03-11T07:58:00.652Z,96165.50
2018-03-11T07:59:04.004Z,96168.66
2018-03-11T08:00:07.640Z,96162.28
2018-03-11T08:01:10.942Z,96170.63
2018-03-11T08:02:14.223Z,96165.44
2018-03-11T08:03:17.607Z,96174.41
2018-03-11T08:04:20.962Z,96170.30
2018-03-11T08:05:24.223Z,96170.78
2018-03-11T08:06:27.980Z,96169.55
2018-03-11T08:07:32.549Z,96176.67
2018-03-11T08:08:35.982Z,96180.30
2018-03-11T08:09:39.293Z,96179.55
2018-03-11T08:10:42.636Z,96175.20
2018-03-11T08:11:46.032Z,96182.61
2018-03-11T08:12:49.691Z,96179.98
2018-03-11T08:13:53.046Z,96178.66
2018-03-11T08:14:56.424Z,96179.51
2018-03-11T08:15:59.641Z,96181.06
2018-03-11T08:17:02.923Z,96191.81
2018-03-11T08:18:06.270Z,96178.31
2018-03-11T08:19:10.107Z,96191.02
2018-03-11T08:20:13.422Z,96197.85
2018-03-11T08:21:16.771Z,96185.78
2018-03-11T08:22:20.175Z,96185.25
2018-03-11T08:23:23.446Z,96185.69
2018-03-11T08:24:26.847Z,96183.19
2018-03-11T08:25:30.617Z,96180.83
2018-03-11T08:26:33.968Z,96191.58
2018-03-11T08:27:37.254Z,96194.98
2018-03-11T08:28:40.529Z,96189.55
2018-03-11T08:29:43.900Z,96195.31
2018-03-11T08:30:47.299Z,96188.60
2018-03-11T08:31:50.987Z,96199.38
2018-03-11T08:32:54.361Z,96198.37
2018-03-11T08:33:57.777Z,96192.44
2018-03-11T08:35:01.020Z,96188.47
2018-03-11T08:36:04.384Z,96188.60
2018-03-11T08:37:07.690Z,96190.91
2018-03-11T08:38:11.139Z,96187.16
2018-03-11T08:39:14.382Z,96185.23
2018-03-11T08:40:17.734Z,96182.79
2018-03-11T08:41:20.985Z,96178.12
2018-03-11T08:42:24.273Z,96179.36
2018-03-11T08:43:27.556Z,96184.08
2018-03-11T08:44:31.118Z,96180.34
2018-03-11T08:45:34.402Z,96180.48
2018-03-11T08:46:37.776Z,96175.00
2018-03-11T08:47:40.974Z,96178.49
2018-03-11T08:48:44.208Z,96176.51
2018-03-11T08:49:47.454Z,96180.25
2018-03-11T08:50:51.067Z,96174.12
2018-03-11T08:51:54.750Z,96161.70
2018-03-11T08:52:58.839Z,96160.70
2018-03-11T08:54:02.234Z,96166.59
2018-03-11T08:55:05.606Z,96167.97
2018-03-11T08:56:09.017Z,96168.11
2018-03-11T08:57:13.680Z,96180.98
2018-03-11T08:58:18.235Z,96180.51
2018-03-11T08:59:23.243Z,96175.78
2018-03-11T09:00:27.498Z,96176.68
2018-03-11T09:01:30.816Z,96186.60
2018-03-11T09:02:34.058Z,96171.72
2018-03-11T09:03:37.901Z,96175.48
2018-03-11T09:04:42.542Z,96177.09
2018-03-11T09:05:47.190Z,96177.20
2018-03-11T09:06:52.105Z,96170.72
2018-03-11T09:07:56.270Z,96175.34
2018-03-11T09:08:59.489Z,96183.47
2018-03-11T09:10:03.228Z,96179.12
2018-03-11T09:11:06.495Z,96179.88
2018-03-11T09:12:10.275Z,96189.83
2018-03-11T09:13:13.905Z,96188.98
2018-03-11T09:14:17.751Z,96201.06
2018-03-11T09:15:21.268Z,96206.30
2018-03-11T09:16:25.254Z,96201.41
2018-03-11T09:17:28.477Z,96198.80
2018-03-11T09:18:32.127Z,96207.91
2018-03-11T09:19:35.375Z,96213.43
2018-03-11T09:20:39.240Z,96205.59
2018-03-11T09:21:42.559Z,96203.47
2018-03-11T09:22:46.431Z,96208.72
2018-03-11T09:23:49.616Z,96208.62
2018-03-11T09:24:53.145Z,96210.88
2018-03-11T09:25:57.885Z,96199.07
2018-03-11T09:27:02.058Z,96197.36
2018-03-11T09:28:05.215Z,96195.85
2018-03-11T09:29:08.800Z,96197.63
2018-03-11T09:30:12.027Z,96189.80
2018-03-11T09:31:15.680Z,96200.90
2018-03-11T09:32:19.247Z,96194.84
2018-03-11T09:33:24.109Z,96191.63
2018-03-11T09:34:27.322Z,96188.13
2018-03-11T09:35:31.230Z,96199.60
2018-03-11T09:36:34.561Z,96194.91
2018-03-11T09:37:37.685Z,96198.06
2018-03-11T09:38:40.944Z,96199.82
2018-03-11T09:39:44.455Z,96197.11
2018-03-11T09:40:49.143Z,96195.16
2018-03-11T09:41:53.567Z,96202.02
2018-03-11T09:42:56.876Z,96195.81
2018-03-11T09:44:00.020Z,96195.71
2018-03-11T09:45:03.221Z,96198.45
2018-03-11T09:46:06.345Z,96192.26
2018-03-11T09:47:10.640Z,96197.02
2018-03-11T09:48:15.076Z,96195.65
2018-03-11T09:49:18.512Z,96193.42
2018-03-11T09:50:21.795Z,96193.28
2018-03-11T09:51:25.023Z,96190.44
2018-03-11T09:52:28.353Z,96191.81
2018-03-11T09:53:32.070Z,96182.22
2018-03-11T09:54:36.113Z,96174.91
2018-03-11T09:55:39.418Z,96182.90
2018-03-11T09:56:42.642Z,96175.46
2018-03-11T09:57:45.894Z,96173.37
2018-03-11T09:58:50.109Z,96171.48
2018-03-11T09:59:53.249Z,96177.20
2018-03-11T10:00:58.113Z,96169.47
2018-03-11T10:02:01.976Z,96182.59
2018-03-11T10:03:05.386Z,96171.78
2018-03-11T10:04:08.786Z,96176.17
2018-03-11T10:05:11.925Z,96175.28
2018-03-11T10:06:15.417Z,96179.77
2018-03-11T10:07:19.681Z,96179.94
2018-03-11T10:08:23.107Z,96173.35
2018-03-11T10:09:26.385Z,96175.27
2018-03-11T10:10:29.684Z,96173.17
2018-03-11T10:11:33.041Z,96171.02
2018-03-11T10:12:36.541Z,96177.77
2018-03-11T10:13:41.118Z,96175.67
2018-03-11T10:14:44.357Z,96169.67
2018-03-11T10:15:47.613Z,96174.92
2018-03-11T10:16:50.926Z,96175.53
2018-03-11T10:17:54.325Z,96173.55
2018-03-11T10:18:58.685Z,96178.66
2018-03-11T10:20:03.117Z,96179.55
2018-03-11T10:21:06.990Z,96178.28
2018-03-11T10:22:10.296Z,96185.89
2018-03-11T10:23:14.482Z,96177.66
2018-03-11T10:24:17.698Z,96170.13
2018-03-11T10:25:21.439Z,96181.79
2018-03-11T10:26:25.461Z,96183.54
2018-03-11T10:27:28.913Z,96176.58
2018-03-11T10:28:32.218Z,96178.05
2018-03-11T10:29:35.432Z,96172.84
2018-03-11T10:30:39.868Z,96181.09
2018-03-11T10:31:43.804Z,96180.62
2018-03-11T10:32:48.087Z,96173.76
2018-03-11T10:33:51.947Z,96170.53
2018-03-11T10:34:55.378Z,96168.27
2018-03-11T10:35:58.859Z,96168.06
2018-03-11T10:37:02.141Z,96161.95
2018-03-11T10:38:05.419Z,96164.45
2018-03-11T10:39:10.616Z,96157.36
2018-03-11T10:40:14.144Z,96155.98
2018-03-11T10:41:18.141Z,96152.63
2018-03-11T10:42:22.325Z,96158.22
2018-03-11T10:43:25.535Z,96154.72
2018-03-11T10:44:28.773Z,96145.28
2018-03-11T10:45:32.320Z,96156.80
2018-03-11T10:46:36.230Z,96150.28
2018-03-11T10:47:40.503Z,96155.29
2018-03-11T10:48:43.820Z,96147.68
2018-03-11T10:49:47.093Z,96151.55
2018-03-11T10:50:50.571Z,96152.14
2018-03-11T10:51:55.622Z,96156.34
2018-03-11T10:52:59.375Z,96154.73
2018-03-11T10:54:02.736Z,96151.58
2018-03-11T10:55:06.038Z,96152.20
2018-03-11T10:56:09.181Z,96151.31
2018-03-11T10:57:12.834Z,96153.33
2018-03-11T10:58:16.792Z,96146.60
2018-03-11T10:59:20.104Z,96145.98
2018-03-11T11:00:23.674Z,96153.25
2018-03-11T11:01:30.821Z,96150.66
2018-03-11T11:02:38.177Z,96151.45
2018-03-11T11:03:45.827Z,96146.47
2018-03-11T11:04:52.903Z,96153.33
2018-03-11T11:05:56.432Z,96149.97
2018-03-11T11:06:59.926Z,96147.62
2018-03-11T11:08:03.050Z,96154.64
2018-03-11T11:09:06.283Z,96157.31
2018-03-11T11:10:10.276Z,96153.98
2018-03-11T11:11:14.583Z,96162.47
2018-03-11T11:12:18.251Z,96159.05
2018-03-11T11:13:22.409Z,96159.83
2018-03-11T11:14:25.751Z,96166.98
2018-03-11T11:15:29.199Z,96152.14
2018-03-11T11:16:32.848Z,96158.94
2018-03-11T11:17:37.014Z,96172.41
2018-03-11T11:18:41.385Z,96167.42
2018-03-11T11:19:45.182Z,96138.09
2018-03-11T11:20:48.404Z,96141.58
2018-03-11T11:21:52.251Z,96136.08
2018-03-11T11:22:57.269Z,96140.33
2018-03-11T11:24:00.904Z,96142.84
2018-03-11T11:25:05.082Z,96141.05
2018-03-11T11:26:08.464Z,96143.95
2018-03-11T11:27:12.221Z,96146.83
2018-03-11T11:28:15.451Z,96121.37
2018-03-11T11:29:19.127Z,96118.76
2018-03-11T11:30:23.899Z,96116.26
2018-03-11T11:31:27.828Z,96104.63
2018-03-11T11:32:31.489Z,96105.16
2018-03-11T11:33:35.449Z,96117.88
2018-03-11T11:34:38.667Z,96117.01
2018-03-11T11:35:42.199Z,96115.02
2018-03-11T11:36:46.027Z,96108.91
2018-03-11T11:37:49.701Z,96108.03
2018-03-11T11:38:53.506Z,96103.16
2018-03-11T11:39:57.004Z,96107.75
2018-03-11T11:41:00.312Z,96112.39
2018-03-11T11:42:04.701Z,96104.66
2018-03-11T11:43:08.701Z,96108.02
2018-03-11T11:44:12.337Z,96097.30
2018-03-11T11:45:16.065Z,96102.55
2018-03-11T11:46:19.431Z,96105.80
2018-03-11T11:47:22.712Z,96106.16
2018-03-11T11:48:27.229Z,96101.28
2018-03-11T11:49:31.714Z,96103.91
2018-03-11T11:50:36.553Z,96098.66
2018-03-11T11:51:40.331Z,96106.53
2018-03-11T11:52:45.199Z,96102.08
2018-03-11T11:53:49.592Z,96093.20
2018-03-11T11:54:54.826Z,96101.77
2018-03-11T11:55:58.792Z,96099.91
2018-03-11T11:57:04.200Z,96103.90
2018-03-11T11:58:08.530Z,96103.52
2018-03-11T11:59:13.348Z,96134.46
2018-03-11T12:00:20.994Z,96097.41
2018-03-11T12:01:26.026Z,96110.16
2018-03-11T12:02:29.793Z,96103.05
2018-03-11T12:03:35.784Z,96114.94
2018-03-11T12:04:41.091Z,96102.45
2018-03-11T12:05:45.114Z,96106.81
2018-03-11T12:06:48.645Z,96113.66
2018-03-11T12:07:53.176Z,96106.57
2018-03-11T12:08:56.895Z,96112.55
2018-03-11T12:10:00.790Z,96108.82
2018-03-11T12:11:04.307Z,96093.09
2018-03-11T12:12:08.552Z,96095.34
2018-03-11T12:13:13.666Z,96100.06
2018-03-11T12:14:17.767Z,96102.31
2018-03-11T12:15:23.388Z,96107.08
2018-03-11T12:16:27.999Z,96100.84
2018-03-11T12:17:31.882Z,96094.84
2018-03-11T12:18:35.333Z,96104.46
2018-03-11T12:19:38.526Z,96097.34
2018-03-11T12:20:42.918Z,96090.59
2018-03-11T12:21:46.607Z,96101.34
2018-03-11T12:22:50.880Z,96098.08
2018-03-11T12:23:55.737Z,96104.20
2018-03-11T12:25:01.430Z,96092.85
2018-03-11T12:26:08.077Z,96101.09
2018-03-11T12:27:13.584Z,96095.47
2018-03-11T12:28:19.043Z,96083.11
2018-03-11T12:29:23.746Z,96098.45